Time;durP1;ratioP1;P1;durP2;ratioP2;P2;SDS_P1;SDS_P2;PMS_P1;PMS_P2;Temp;Humidity;BMP_temperature;BMP_pressure;BME280_temperature;BME280_humidity;BME280_pressure;Samples;Min_cycle;Max_cycle;Signal;HPM_P1;HPM_P2
2023/01/18 00:00:27;;;;;;;14.23;6.40;;;0.10;99.90;;;;;;5017963;28;20429;-73
2023/01/18 00:02:53;;;;;;;14.80;6.60;;;0.10;99.90;;;;;;5019738;28;20229;-72
2023/01/18 00:05:22;;;;;;;18.27;7.57;;;0.10;99.90;;;;;;5006283;28;20418;-72
2023/01/18 00:07:49;;;;;;;19.73;7.00;;;0.20;99.90;;;;;;5017092;28;20747;-72
2023/01/18 00:10:15;;;;;;;17.20;6.77;;;0.10;99.90;;;;;;5018172;28;20433;-72
2023/01/18 00:12:40;;;;;;;12.00;7.07;;;0.10;99.90;;;;;;5012027;28;20425;-73
2023/01/18 00:15:07;;;;;;;11.30;6.73;;;0.10;99.90;;;;;;5012946;28;20194;-73
2023/01/18 00:17:32;;;;;;;16.40;7.33;;;0.10;99.90;;;;;;5021165;28;20187;-72
2023/01/18 00:19:58;;;;;;;11.63;5.90;;;0.10;99.90;;;;;;5012205;28;20470;-72
2023/01/18 00:22:23;;;;;;;20.07;6.37;;;0.10;99.90;;;;;;5020127;28;20241;-72
2023/01/18 00:24:49;;;;;;;13.73;5.43;;;0.10;99.90;;;;;;4998786;28;20225;-72
2023/01/18 00:27:15;;;;;;;14.47;6.93;;;0.10;99.90;;;;;;5005146;28;20191;-72
2023/01/18 00:29:40;;;;;;;19.47;5.03;;;0.10;99.90;;;;;;5011572;28;20590;-72
2023/01/18 00:32:06;;;;;;;11.00;5.73;;;0.10;99.90;;;;;;5012203;28;20191;-71
2023/01/18 00:34:32;;;;;;;12.70;7.10;;;0.10;99.90;;;;;;4996484;28;20187;-73
2023/01/18 00:36:57;;;;;;;9.60;4.70;;;0.10;99.90;;;;;;5010526;28;20210;-72
2023/01/18 00:39:23;;;;;;;9.77;5.20;;;0.10;99.90;;;;;;5007934;28;20707;-73
2023/01/18 00:44:32;;;;;;;32.70;5.10;;;0.10;99.90;;;;;;5005066;28;20247;-72
2023/01/18 00:46:58;;;;;;;12.83;5.50;;;0.00;99.90;;;;;;5005039;28;20779;-72
2023/01/18 00:49:24;;;;;;;11.93;6.10;;;0.00;99.90;;;;;;4992790;28;20192;-73
2023/01/18 00:51:51;;;;;;;10.20;5.00;;;0.00;99.90;;;;;;4996057;28;20218;-72
2023/01/18 00:54:17;;;;;;;10.93;4.87;;;0.00;99.90;;;;;;4992459;28;20214;-72
2023/01/18 00:56:43;;;;;;;19.17;6.10;;;0.00;99.90;;;;;;5008792;28;20445;-72
2023/01/18 00:59:08;;;;;;;13.30;6.53;;;0.00;99.90;;;;;;5017955;28;20425;-72
2023/01/18 01:01:34;;;;;;;11.40;6.10;;;0.10;99.90;;;;;;5020057;28;20272;-73
2023/01/18 01:06:44;;;;;;;17.60;6.77;;;0.00;99.90;;;;;;5004596;28;20253;-73
2023/01/18 01:09:24;;;;;;;13.30;6.37;;;0.10;99.90;;;;;;5019754;28;20421;-72
2023/01/18 01:26:03;;;;;;;16.33;7.03;;;0.10;99.90;;;;;;5015185;28;20938;-72
2023/01/18 01:28:29;;;;;;;17.13;7.93;;;0.10;99.90;;;;;;5001627;28;20517;-73
2023/01/18 01:30:56;;;;;;;15.90;6.30;;;0.20;99.90;;;;;;5002514;28;20418;-73
2023/01/18 01:33:22;;;;;;;12.83;5.90;;;0.20;99.90;;;;;;5014237;28;20420;-72
2023/01/18 01:35:48;;;;;;;17.43;6.63;;;0.10;99.90;;;;;;5014309;28;21079;-72
2023/01/18 01:38:14;;;;;;;10.03;6.17;;;0.10;99.90;;;;;;5015045;28;20183;-73
2023/01/18 01:40:39;;;;;;;13.63;5.80;;;0.00;99.90;;;;;;5014971;28;20464;-72
2023/01/18 01:43:12;;;;;;;10.90;5.93;;;0.00;99.90;;;;;;4996743;28;20192;-72
2023/01/18 01:45:37;;;;;;;11.53;6.00;;;0.00;99.90;;;;;;5006953;28;20186;-72
2023/01/18 01:48:03;;;;;;;13.60;6.07;;;0.00;99.90;;;;;;4996311;28;20461;-72
2023/01/18 01:50:35;;;;;;;11.70;5.23;;;0.00;99.90;;;;;;4995635;28;20237;-72
2023/01/18 01:53:02;;;;;;;12.07;6.40;;;0.00;99.90;;;;;;5005047;28;20172;-73
2023/01/18 01:55:32;;;;;;;16.70;6.20;;;-0.10;99.90;;;;;;5009096;28;20418;-72
2023/01/18 01:58:04;;;;;;;7.93;4.57;;;-0.10;99.90;;;;;;5015333;28;20472;-72
2023/01/18 02:00:30;;;;;;;13.60;5.87;;;-0.10;99.90;;;;;;5016527;28;20772;-75
2023/01/18 02:02:59;;;;;;;12.23;4.87;;;-0.10;99.90;;;;;;5027253;28;20469;-75
2023/01/18 02:05:26;;;;;;;14.37;6.13;;;-0.10;99.90;;;;;;5017474;28;20190;-75
2023/01/18 02:07:54;;;;;;;11.77;6.20;;;-0.10;99.90;;;;;;5012804;28;20453;-75
2023/01/18 02:10:20;;;;;;;10.57;5.57;;;-0.10;99.90;;;;;;5011165;28;20967;-75
2023/01/18 02:12:48;;;;;;;9.53;5.40;;;-0.10;99.90;;;;;;5004173;28;20418;-75
2023/01/18 02:15:13;;;;;;;10.97;6.33;;;-0.10;99.90;;;;;;5013580;28;20422;-75
2023/01/18 02:17:42;;;;;;;8.63;4.77;;;-0.20;99.90;;;;;;5003629;28;20774;-72
2023/01/18 02:20:30;;;;;;;11.77;5.93;;;-0.20;99.90;;;;;;5005524;28;20183;-72
2023/01/18 02:22:59;;;;;;;8.07;5.03;;;-0.20;99.90;;;;;;5020030;28;20465;-72
2023/01/18 02:25:56;;;;;;;6.80;4.70;;;-0.20;99.90;;;;;;5014147;28;20457;-72
2023/01/18 02:28:32;;;;;;;13.30;6.57;;;-0.20;99.90;;;;;;5006322;28;20439;-72
2023/01/18 02:31:22;;;;;;;9.23;5.10;;;-0.20;99.90;;;;;;4994044;28;20469;-73
2023/01/18 02:34:05;;;;;;;11.67;5.73;;;-0.20;99.90;;;;;;4998956;28;20454;-72
2023/01/18 02:36:48;;;;;;;13.53;6.40;;;-0.20;99.90;;;;;;5012120;28;20464;-72
2023/01/18 02:39:22;;;;;;;13.83;7.80;;;-0.20;99.90;;;;;;5013971;28;20429;-72
2023/01/18 02:47:30;;;;;;;12.17;5.60;;;-0.20;99.90;;;;;;5013710;28;20453;-72
2023/01/18 02:49:56;;;;;;;12.13;5.33;;;-0.20;99.90;;;;;;5012120;28;20509;-72
2023/01/18 02:52:46;;;;;;;8.40;4.93;;;-0.30;99.90;;;;;;5010653;28;20418;-72
2023/01/18 02:55:33;;;;;;;12.33;6.23;;;-0.20;99.90;;;;;;5011898;28;20421;-73
2023/01/18 02:58:22;;;;;;;12.80;6.47;;;-0.20;99.90;;;;;;4994167;28;20412;-73
2023/01/18 03:00:54;;;;;;;15.80;6.03;;;-0.30;99.90;;;;;;5001793;28;20452;-72
2023/01/18 03:03:23;;;;;;;13.17;6.73;;;-0.30;99.90;;;;;;5028386;28;21242;-73
2023/01/18 03:05:53;;;;;;;19.60;8.50;;;-0.30;99.90;;;;;;4997099;28;20472;-72
2023/01/18 03:08:44;;;;;;;16.17;8.57;;;-0.30;99.90;;;;;;5007287;28;20492;-73
2023/01/18 03:11:39;;;;;;;20.37;9.80;;;-0.30;99.90;;;;;;5001638;28;20422;-73
2023/01/18 03:14:21;;;;;;;13.83;6.80;;;-0.30;99.90;;;;;;4993504;28;20986;-72
2023/01/18 03:17:01;;;;;;;12.77;7.23;;;-0.30;99.90;;;;;;5008777;28;20441;-73
2023/01/18 03:25:18;;;;;;;12.20;6.47;;;-0.30;99.90;;;;;;5006466;28;20502;-73
2023/01/18 03:36:11;;;;;;;12.57;6.63;;;-0.30;99.90;;;;;;5012230;28;20425;-73
2023/01/18 03:38:41;;;;;;;14.70;6.07;;;-0.30;99.90;;;;;;5004252;28;20423;-72
2023/01/18 03:41:08;;;;;;;16.33;7.23;;;-0.30;99.90;;;;;;4994979;28;20459;-72
2023/01/18 03:43:36;;;;;;;12.87;6.40;;;-0.40;99.90;;;;;;5003416;28;20417;-73
2023/01/18 03:46:03;;;;;;;15.47;8.07;;;-0.40;99.90;;;;;;5003299;28;20773;-73
2023/01/18 03:48:33;;;;;;;10.57;6.20;;;-0.30;99.90;;;;;;5012510;28;20513;-72
2023/01/18 03:51:21;;;;;;;14.00;5.70;;;-0.40;99.90;;;;;;5003443;28;20430;-73
2023/01/18 03:53:56;;;;;;;9.70;5.57;;;-0.40;99.90;;;;;;5005227;28;20923;-72
2023/01/18 03:56:56;;;;;;;9.40;5.20;;;-0.40;99.90;;;;;;5000042;28;21172;-73
2023/01/18 03:59:22;;;;;;;13.50;6.23;;;-0.40;99.90;;;;;;5004250;28;20513;-72
2023/01/18 04:01:48;;;;;;;10.27;6.17;;;-0.40;99.90;;;;;;5018829;28;20478;-72
2023/01/18 04:04:14;;;;;;;11.93;6.70;;;-0.40;99.90;;;;;;5018441;28;20442;-72
2023/01/18 04:06:40;;;;;;;13.53;6.53;;;-0.40;99.90;;;;;;5000002;28;20225;-72
2023/01/18 04:09:07;;;;;;;11.93;6.23;;;-0.40;99.90;;;;;;5010434;28;20309;-72
2023/01/18 04:11:33;;;;;;;14.00;6.50;;;-0.40;99.90;;;;;;4997846;28;20433;-72
2023/01/18 04:13:59;;;;;;;10.40;5.73;;;-0.40;99.90;;;;;;5001360;28;20427;-72
2023/01/18 04:16:24;;;;;;;14.50;6.87;;;-0.40;99.90;;;;;;4999304;28;20202;-72
2023/01/18 04:18:50;;;;;;;10.10;5.20;;;-0.40;99.90;;;;;;5011657;28;20175;-72
2023/01/18 04:21:16;;;;;;;9.87;5.70;;;-0.40;99.90;;;;;;5007515;28;20286;-72
2023/01/18 04:23:42;;;;;;;7.17;4.50;;;-0.40;99.90;;;;;;4991098;28;20998;-72
2023/01/18 04:26:07;;;;;;;7.20;3.37;;;-0.40;99.90;;;;;;5008388;28;20179;-72
2023/01/18 04:28:33;;;;;;;15.93;4.20;;;-0.50;99.90;;;;;;5001332;28;20207;-72
2023/01/18 04:30:59;;;;;;;8.17;4.10;;;-0.50;99.90;;;;;;5004614;28;20172;-72
2023/01/18 04:33:25;;;;;;;9.00;4.80;;;-0.50;99.90;;;;;;5000460;28;20217;-72
2023/01/18 04:35:53;;;;;;;9.87;4.83;;;-0.50;99.90;;;;;;5011105;28;20175;-72
2023/01/18 04:38:19;;;;;;;7.57;4.13;;;-0.50;99.90;;;;;;5011130;28;20414;-72
2023/01/18 04:40:44;;;;;;;8.93;4.50;;;-0.50;99.90;;;;;;4994892;28;20427;-72
2023/01/18 04:43:10;;;;;;;9.53;4.30;;;-0.50;99.90;;;;;;5000399;28;20423;-72
2023/01/18 04:45:36;;;;;;;7.57;3.73;;;-0.50;99.90;;;;;;5011636;28;20262;-72
2023/01/18 04:48:01;;;;;;;11.50;4.17;;;-0.50;99.90;;;;;;5021827;28;20170;-74
2023/01/18 04:50:27;;;;;;;7.27;3.80;;;-0.50;99.90;;;;;;5023130;28;20179;-72
2023/01/18 04:52:53;;;;;;;5.83;3.80;;;-0.50;99.90;;;;;;5013532;28;20215;-73
2023/01/18 04:55:19;;;;;;;9.53;4.97;;;-0.50;99.90;;;;;;4995357;28;20837;-73
2023/01/18 04:57:45;;;;;;;10.60;4.90;;;-0.50;99.90;;;;;;5015861;28;20183;-73
2023/01/18 05:00:14;;;;;;;8.47;4.80;;;-0.50;99.90;;;;;;5018572;28;20418;-73
2023/01/18 05:02:40;;;;;;;6.50;3.23;;;-0.50;99.90;;;;;;5032123;28;20210;-73
2023/01/18 05:05:06;;;;;;;5.40;3.37;;;-0.50;99.90;;;;;;5015019;28;20891;-73
2023/01/18 05:07:35;;;;;;;9.60;4.10;;;-0.50;99.90;;;;;;5005660;28;20662;-72
2023/01/18 05:10:02;;;;;;;8.00;3.90;;;-0.50;99.90;;;;;;5014506;28;20792;-72
2023/01/18 05:12:28;;;;;;;6.67;3.27;;;-0.50;99.90;;;;;;5012010;28;20443;-73
2023/01/18 05:14:54;;;;;;;7.90;3.80;;;-0.50;99.90;;;;;;4997269;28;20484;-73
2023/01/18 05:17:20;;;;;;;11.47;3.93;;;-0.50;99.90;;;;;;5001070;28;20461;-73
2023/01/18 05:19:47;;;;;;;7.50;3.97;;;-0.50;99.90;;;;;;5014204;28;20258;-73
2023/01/18 05:22:13;;;;;;;10.17;4.47;;;-0.50;99.90;;;;;;5016421;28;20469;-73
2023/01/18 05:24:38;;;;;;;9.10;4.67;;;-0.60;99.90;;;;;;5006476;28;20849;-73
2023/01/18 05:27:04;;;;;;;7.77;4.17;;;-0.50;99.90;;;;;;4996260;28;20648;-73
2023/01/18 05:29:30;;;;;;;8.20;3.77;;;-0.50;99.90;;;;;;5006334;28;20175;-72
2023/01/18 05:31:56;;;;;;;8.80;3.40;;;-0.50;99.90;;;;;;4994428;28;20422;-72
2023/01/18 05:34:21;;;;;;;8.20;3.30;;;-0.60;99.90;;;;;;4994730;28;20230;-73
2023/01/18 05:36:47;;;;;;;8.63;3.70;;;-0.60;99.90;;;;;;5007368;28;20225;-73
2023/01/18 05:39:13;;;;;;;4.87;2.80;;;-0.60;99.90;;;;;;5002664;28;20275;-73
2023/01/18 05:41:39;;;;;;;10.73;4.90;;;-0.60;99.90;;;;;;5011567;28;20691;-72
2023/01/18 05:44:04;;;;;;;8.23;4.10;;;-0.60;99.90;;;;;;5003302;28;20223;-73
2023/01/18 05:46:30;;;;;;;6.73;3.97;;;-0.60;99.90;;;;;;5009204;28;20179;-73
2023/01/18 05:48:57;;;;;;;7.37;3.93;;;-0.60;99.90;;;;;;5014081;28;20198;-73
2023/01/18 05:51:23;;;;;;;5.73;3.40;;;-0.70;99.90;;;;;;5012898;28;20318;-73
2023/01/18 05:53:48;;;;;;;4.43;3.03;;;-0.60;99.90;;;;;;5004838;28;20438;-73
2023/01/18 05:56:14;;;;;;;5.17;2.37;;;-0.60;99.90;;;;;;4995771;28;20677;-73
2023/01/18 05:58:40;;;;;;;4.80;2.07;;;-0.60;99.90;;;;;;5003614;28;20261;-73
2023/01/18 06:01:08;;;;;;;5.10;2.73;;;-0.60;99.90;;;;;;5017329;28;20457;-73
2023/01/18 06:03:34;;;;;;;5.73;3.10;;;-0.60;99.90;;;;;;5013186;28;20191;-73
2023/01/18 06:06:00;;;;;;;4.67;2.73;;;-0.60;99.90;;;;;;5011056;28;20875;-73
2023/01/18 06:08:26;;;;;;;6.50;3.00;;;-0.60;99.90;;;;;;5005024;28;20238;-73
2023/01/18 06:10:57;;;;;;;4.90;2.73;;;-0.60;99.90;;;;;;5006734;28;20425;-73
2023/01/18 06:13:26;;;;;;;6.27;3.20;;;-0.50;99.90;;;;;;5012920;28;20436;-72
2023/01/18 06:15:53;;;;;;;4.00;2.37;;;-0.60;99.90;;;;;;5009771;28;20461;-73
2023/01/18 06:18:20;;;;;;;4.20;2.90;;;-0.60;99.90;;;;;;5013446;28;20418;-73
2023/01/18 06:20:45;;;;;;;6.60;3.40;;;-0.60;99.90;;;;;;5011825;28;20468;-72
2023/01/18 06:23:11;;;;;;;4.13;2.50;;;-0.60;99.90;;;;;;5012785;28;20426;-73
2023/01/18 06:25:37;;;;;;;6.73;3.57;;;-0.60;99.90;;;;;;4996081;28;20211;-73
2023/01/18 06:28:03;;;;;;;6.33;3.70;;;-0.70;99.90;;;;;;4993935;28;20187;-73
2023/01/18 06:30:30;;;;;;;5.63;3.53;;;-0.70;99.90;;;;;;4997299;28;20230;-72
2023/01/18 06:32:55;;;;;;;6.37;3.43;;;-0.70;99.90;;;;;;5013097;28;20497;-73
2023/01/18 06:35:22;;;;;;;6.60;3.20;;;-0.70;99.90;;;;;;5009092;28;20451;-72
2023/01/18 06:37:47;;;;;;;10.33;3.27;;;-0.70;99.90;;;;;;4997339;28;20184;-72
2023/01/18 06:40:13;;;;;;;9.33;3.93;;;-0.70;99.90;;;;;;4997020;28;20418;-73
2023/01/18 06:42:39;;;;;;;8.23;4.50;;;-0.70;99.90;;;;;;5002466;28;20208;-73
2023/01/18 06:45:06;;;;;;;7.20;4.33;;;-0.70;99.90;;;;;;5009699;28;20775;-73
2023/01/18 06:47:31;;;;;;;4.80;3.20;;;-0.70;99.90;;;;;;5013124;28;20913;-74
2023/01/18 06:49:57;;;;;;;7.33;3.70;;;-0.80;99.90;;;;;;5005938;28;20424;-73
2023/01/18 06:52:23;;;;;;;6.30;4.13;;;-0.80;99.90;;;;;;4992672;28;20203;-73
2023/01/18 06:54:48;;;;;;;6.70;3.70;;;-0.70;99.90;;;;;;5009026;28;20195;-72
2023/01/18 06:57:14;;;;;;;6.13;3.50;;;-0.80;99.90;;;;;;5029306;28;20194;-72
2023/01/18 06:59:40;;;;;;;10.00;4.40;;;-0.80;99.90;;;;;;5015372;28;20250;-72
2023/01/18 07:02:06;;;;;;;7.07;4.87;;;-0.80;99.90;;;;;;5012917;28;20210;-72
2023/01/18 07:04:32;;;;;;;6.83;4.23;;;-0.80;99.90;;;;;;5010449;28;20183;-72
2023/01/18 07:06:58;;;;;;;11.03;4.83;;;-0.80;99.90;;;;;;5000540;28;20898;-73
2023/01/18 07:09:24;;;;;;;7.60;4.50;;;-0.80;99.90;;;;;;4999236;28;20473;-73
2023/01/18 07:11:49;;;;;;;8.10;4.13;;;-0.80;99.90;;;;;;5010886;28;20194;-73
2023/01/18 07:14:15;;;;;;;7.30;4.00;;;-0.80;99.90;;;;;;5012501;28;20193;-73
2023/01/18 07:16:40;;;;;;;8.47;4.10;;;-0.80;99.90;;;;;;5002931;28;20188;-73
2023/01/18 07:19:06;;;;;;;7.10;4.27;;;-0.80;99.90;;;;;;4993432;28;20191;-73
2023/01/18 07:21:32;;;;;;;7.70;3.30;;;-0.80;99.90;;;;;;5011975;28;20620;-73
2023/01/18 07:23:58;;;;;;;4.97;3.10;;;-0.80;99.90;;;;;;5012026;28;20184;-73
2023/01/18 07:26:24;;;;;;;4.83;2.93;;;-0.80;99.90;;;;;;5003082;28;20271;-73
2023/01/18 07:28:53;;;;;;;6.10;2.97;;;-0.80;99.90;;;;;;4995753;28;20418;-73
2023/01/18 07:31:19;;;;;;;10.47;4.00;;;-0.90;99.90;;;;;;5012190;28;20472;-72
2023/01/18 07:33:44;;;;;;;12.60;4.50;;;-0.90;99.90;;;;;;4998731;28;20759;-73
2023/01/18 07:36:11;;;;;;;6.47;3.13;;;-0.90;99.90;;;;;;5003709;28;20666;-73
2023/01/18 07:38:38;;;;;;;7.80;3.53;;;-0.80;99.90;;;;;;5009072;28;20191;-73
2023/01/18 07:41:09;;;;;;;9.37;3.47;;;-0.90;99.90;;;;;;5006591;28;20529;-73
2023/01/18 07:43:38;;;;;;;6.20;3.50;;;-0.90;99.90;;;;;;4995096;28;20423;-73
2023/01/18 07:46:05;;;;;;;5.50;3.10;;;-0.90;99.90;;;;;;5002553;28;20489;-72
2023/01/18 07:48:32;;;;;;;4.73;3.20;;;-0.80;99.90;;;;;;5014042;28;20427;-73
2023/01/18 07:50:59;;;;;;;9.80;3.80;;;-0.80;99.90;;;;;;4996590;28;20451;-73
2023/01/18 07:53:26;;;;;;;7.87;4.13;;;-0.80;99.90;;;;;;4997123;28;20422;-72
2023/01/18 07:55:52;;;;;;;9.20;4.27;;;-0.80;99.90;;;;;;5012215;28;20422;-74
2023/01/18 07:58:18;;;;;;;5.77;3.43;;;-0.80;99.90;;;;;;5003327;28;20542;-72
2023/01/18 08:00:44;;;;;;;4.93;2.63;;;-0.80;99.90;;;;;;5012667;28;20430;-71
2023/01/18 08:03:15;;;;;;;3.63;2.57;;;-0.70;99.90;;;;;;5011400;28;20513;-72
2023/01/18 08:05:42;;;;;;;11.73;3.23;;;-0.70;99.90;;;;;;5004632;28;20445;-72
2023/01/18 08:08:17;;;;;;;10.30;2.73;;;-0.70;99.90;;;;;;5012527;28;20430;-71
2023/01/18 08:10:43;;;;;;;3.17;2.30;;;-0.70;99.90;;;;;;4998626;28;20418;-72
2023/01/18 08:13:09;;;;;;;4.27;2.33;;;-0.70;99.90;;;;;;4992422;28;20427;-71
2023/01/18 08:15:35;;;;;;;6.40;3.50;;;-0.60;99.90;;;;;;5010578;28;20422;-72
2023/01/18 08:18:02;;;;;;;4.13;2.20;;;-0.60;99.90;;;;;;4999706;28;20969;-72
2023/01/18 08:20:28;;;;;;;6.57;2.90;;;-0.60;99.90;;;;;;5001112;28;20431;-72
2023/01/18 08:22:55;;;;;;;6.80;3.60;;;-0.50;99.90;;;;;;5011606;28;20943;-72
2023/01/18 08:25:22;;;;;;;4.93;2.83;;;-0.50;99.90;;;;;;5011194;28;20935;-72
2023/01/18 08:27:48;;;;;;;5.80;3.20;;;-0.50;99.90;;;;;;5000497;28;20472;-71
2023/01/18 08:30:14;;;;;;;6.33;3.00;;;-0.50;99.90;;;;;;4998772;28;20423;-72
2023/01/18 08:32:39;;;;;;;3.93;2.40;;;-0.40;99.90;;;;;;5011365;28;20182;-71
2023/01/18 08:35:06;;;;;;;6.43;3.20;;;-0.40;99.90;;;;;;5006679;28;20278;-72
2023/01/18 08:37:32;;;;;;;7.00;3.40;;;-0.40;99.90;;;;;;5004983;28;20221;-72
2023/01/18 08:39:57;;;;;;;5.40;2.87;;;-0.50;99.90;;;;;;5011163;28;20458;-72
2023/01/18 08:42:23;;;;;;;4.70;2.90;;;-0.50;99.90;;;;;;5010920;28;20466;-72
2023/01/18 08:44:48;;;;;;;7.40;3.20;;;-0.50;99.90;;;;;;5004977;28;20190;-72
2023/01/18 08:47:14;;;;;;;7.37;3.07;;;-0.40;99.90;;;;;;4993706;28;20635;-71
2023/01/18 08:49:40;;;;;;;4.57;2.93;;;-0.50;99.90;;;;;;5006417;28;20188;-72
2023/01/18 08:52:06;;;;;;;6.53;2.90;;;-0.50;99.90;;;;;;5003674;28;20903;-71
2023/01/18 08:54:32;;;;;;;5.10;2.80;;;-0.40;99.90;;;;;;5004323;28;20229;-72
2023/01/18 08:56:58;;;;;;;3.47;2.27;;;-0.40;99.90;;;;;;5011259;28;20234;-72
2023/01/18 08:59:23;;;;;;;6.77;2.60;;;-0.30;99.90;;;;;;5016551;28;20179;-72
2023/01/18 09:01:49;;;;;;;9.90;3.00;;;-0.20;99.90;;;;;;5023507;28;20516;-72
2023/01/18 09:04:14;;;;;;;4.07;2.30;;;-0.20;99.90;;;;;;5002403;28;20188;-72
2023/01/18 09:06:40;;;;;;;8.10;1.90;;;-0.20;99.90;;;;;;4996723;28;20183;-71
2023/01/18 09:09:06;;;;;;;4.13;2.00;;;-0.20;99.90;;;;;;4991488;28;20188;-72
2023/01/18 09:11:31;;;;;;;3.30;1.70;;;-0.20;99.90;;;;;;5002762;28;20194;-72
2023/01/18 09:13:58;;;;;;;2.87;1.83;;;-0.20;99.90;;;;;;4991408;28;20215;-72
2023/01/18 09:16:24;;;;;;;6.20;3.30;;;-0.20;99.90;;;;;;5002907;28;20238;-73
2023/01/18 09:18:49;;;;;;;4.43;2.53;;;-0.20;99.90;;;;;;4991692;28;20423;-72
2023/01/18 09:21:19;;;;;;;2.40;1.73;;;-0.20;99.90;;;;;;5001939;28;20203;-72
2023/01/18 09:23:47;;;;;;;2.90;2.10;;;-0.10;99.90;;;;;;5009445;28;20198;-72
2023/01/18 09:26:15;;;;;;;3.37;2.37;;;-0.10;99.90;;;;;;5010317;28;20418;-73
2023/01/18 09:28:47;;;;;;;3.73;2.30;;;-0.20;99.90;;;;;;5006200;28;20757;-73
2023/01/18 09:31:13;;;;;;;6.23;3.17;;;-0.10;99.90;;;;;;5008227;28;20899;-73
2023/01/18 09:33:41;;;;;;;8.10;2.70;;;-0.10;99.90;;;;;;5013429;28;20472;-72
2023/01/18 09:36:10;;;;;;;3.90;2.33;;;0.00;99.90;;;;;;5022959;28;20416;-74
2023/01/18 09:38:37;;;;;;;3.27;2.10;;;0.00;99.90;;;;;;5000266;28;20421;-73
2023/01/18 09:41:06;;;;;;;3.27;2.07;;;0.00;99.90;;;;;;5013911;28;20423;-73
2023/01/18 09:43:38;;;;;;;4.57;2.30;;;0.00;99.90;;;;;;5012992;28;20469;-73
2023/01/18 09:46:09;;;;;;;6.57;2.40;;;0.00;99.90;;;;;;5013395;28;20913;-73
2023/01/18 09:48:39;;;;;;;2.50;1.70;;;0.10;99.90;;;;;;5005301;28;20795;-73
2023/01/18 09:51:52;;;;;;;2.17;1.40;;;0.10;99.90;;;;;;5009983;28;20426;-72
2023/01/18 09:54:18;;;;;;;5.30;2.50;;;0.20;99.90;;;;;;5009358;28;20442;-73
2023/01/18 09:56:48;;;;;;;4.70;1.90;;;0.20;99.90;;;;;;4997043;28;20427;-72
2023/01/18 09:59:20;;;;;;;3.70;1.97;;;0.30;99.90;;;;;;5000253;28;20715;-72
2023/01/18 10:01:47;;;;;;;3.27;2.00;;;0.20;99.90;;;;;;5028579;28;20460;-72
2023/01/18 10:04:17;;;;;;;4.60;2.43;;;0.30;99.90;;;;;;5012807;28;20502;-72
2023/01/18 10:06:54;;;;;;;5.97;2.80;;;0.30;99.90;;;;;;5004716;28;20496;-73
2023/01/18 10:09:19;;;;;;;5.13;2.27;;;0.40;99.90;;;;;;5013146;28;20899;-72
2023/01/18 10:11:58;;;;;;;11.70;1.90;;;0.40;99.90;;;;;;5010601;28;20438;-72
2023/01/18 10:14:45;;;;;;;5.30;2.20;;;0.40;99.90;;;;;;5005271;28;20194;-72
2023/01/18 10:17:19;;;;;;;4.23;2.47;;;0.40;99.90;;;;;;5003396;28;20457;-72
2023/01/18 10:19:45;;;;;;;2.63;1.67;;;0.30;99.90;;;;;;4999006;28;20425;-72
2023/01/18 10:22:20;;;;;;;5.67;2.77;;;0.30;99.90;;;;;;5024281;28;20840;-73
2023/01/18 10:24:51;;;;;;;4.30;2.47;;;0.30;99.90;;;;;;5012782;28;20245;-72
2023/01/18 10:27:35;;;;;;;3.93;2.03;;;0.30;99.90;;;;;;5006150;28;20427;-72
2023/01/18 10:30:31;;;;;;;5.47;2.70;;;0.30;99.90;;;;;;5000000;28;20464;-72
2023/01/18 10:33:11;;;;;;;3.63;1.80;;;0.40;99.90;;;;;;4992521;28;20443;-72
2023/01/18 10:35:44;;;;;;;4.70;2.50;;;0.50;99.90;;;;;;5010133;28;20452;-73
2023/01/18 10:38:14;;;;;;;3.63;2.63;;;0.60;99.90;;;;;;5007296;28;20540;-72
2023/01/18 10:40:42;;;;;;;6.37;2.40;;;0.50;99.90;;;;;;4991512;28;20423;-72
2023/01/18 10:43:13;;;;;;;6.73;3.37;;;0.20;99.90;;;;;;5003444;28;20749;-72
2023/01/18 10:45:39;;;;;;;3.70;1.70;;;0.20;99.90;;;;;;5011790;28;20433;-72
2023/01/18 10:48:17;;;;;;;7.00;2.73;;;0.20;99.90;;;;;;5003797;28;20814;-72
2023/01/18 10:50:54;;;;;;;4.70;2.93;;;0.20;99.90;;;;;;4992676;28;20183;-72
2023/01/18 10:53:26;;;;;;;4.43;2.97;;;0.20;99.90;;;;;;4999134;28;20426;-72
2023/01/18 10:55:54;;;;;;;4.50;2.10;;;0.20;99.90;;;;;;5011650;28;20472;-72
2023/01/18 10:58:50;;;;;;;4.10;2.50;;;0.20;99.90;;;;;;5002661;28;20623;-72
2023/01/18 11:01:23;;;;;;;6.83;3.03;;;0.20;99.90;;;;;;5005269;28;20489;-72
2023/01/18 11:04:14;;;;;;;3.83;2.23;;;0.10;99.90;;;;;;5007906;28;20446;-72
2023/01/18 11:06:49;;;;;;;5.23;2.40;;;0.10;99.90;;;;;;4997154;28;20975;-72
2023/01/18 11:09:33;;;;;;;5.83;2.17;;;0.30;99.90;;;;;;5006525;28;20503;-72
2023/01/18 11:12:32;;;;;;;8.67;4.27;;;0.20;99.90;;;;;;5004839;28;20505;-72
2023/01/18 11:15:15;;;;;;;24.47;10.10;;;0.20;99.90;;;;;;4998514;28;20445;-72
2023/01/18 11:17:43;;;;;;;16.47;8.20;;;0.20;99.90;;;;;;5000373;28;20450;-72
2023/01/18 11:20:22;;;;;;;11.03;5.20;;;0.30;99.90;;;;;;5004793;28;20431;-72
2023/01/18 11:22:59;;;;;;;4.50;2.80;;;0.30;99.90;;;;;;4996452;28;20515;-72
2023/01/18 11:25:36;;;;;;;8.90;3.67;;;0.30;99.90;;;;;;5004828;28;20914;-72
2023/01/18 11:28:03;;;;;;;5.97;3.07;;;0.40;99.90;;;;;;5001907;28;20899;-72
2023/01/18 11:30:29;;;;;;;5.60;2.80;;;0.40;99.90;;;;;;5005539;28;20414;-72
2023/01/18 11:32:58;;;;;;;8.20;3.93;;;0.40;99.90;;;;;;4999204;28;20843;-72
2023/01/18 11:35:30;;;;;;;3.03;1.90;;;0.50;99.90;;;;;;5003813;28;20426;-72
2023/01/18 11:38:00;;;;;;;5.10;2.50;;;0.50;99.90;;;;;;5003788;28;20472;-72
2023/01/18 11:40:29;;;;;;;8.77;4.67;;;0.50;99.90;;;;;;5011605;28;20468;-72
2023/01/18 11:43:23;;;;;;;7.10;4.13;;;0.50;99.90;;;;;;5011472;28;20457;-73
2023/01/18 11:46:16;;;;;;;8.57;3.97;;;0.50;99.90;;;;;;5006835;28;20443;-72
2023/01/18 11:49:15;;;;;;;9.40;3.97;;;0.60;99.90;;;;;;5002864;28;20419;-73
2023/01/18 11:51:52;;;;;;;9.57;4.03;;;0.60;99.90;;;;;;4998261;28;20430;-72
2023/01/18 11:54:48;;;;;;;3.07;2.47;;;0.70;99.90;;;;;;4996576;28;20746;-72
2023/01/18 11:57:14;;;;;;;3.70;1.60;;;0.70;99.90;;;;;;5005240;28;20938;-73
2023/01/18 11:59:44;;;;;;;5.07;2.50;;;0.70;99.90;;;;;;5008179;28;20517;-73
2023/01/18 12:02:44;;;;;;;5.73;2.87;;;0.70;99.90;;;;;;5018311;28;20214;-73
2023/01/18 12:05:10;;;;;;;7.10;3.30;;;0.70;99.90;;;;;;5019236;28;20417;-72
2023/01/18 12:07:55;;;;;;;3.63;2.53;;;0.70;99.90;;;;;;5011974;28;20453;-72
2023/01/18 12:10:26;;;;;;;3.67;1.60;;;0.80;99.90;;;;;;5009878;28;20480;-72
2023/01/18 12:12:54;;;;;;;6.37;2.90;;;0.80;99.90;;;;;;5017610;28;20424;-72
2023/01/18 12:16:04;;;;;;;5.60;3.10;;;0.80;99.90;;;;;;5016555;28;20434;-72
2023/01/18 12:18:50;;;;;;;3.80;2.10;;;0.90;99.90;;;;;;5008878;28;20508;-72
2023/01/18 12:21:22;;;;;;;6.00;2.40;;;0.80;99.90;;;;;;5023357;28;20421;-72
2023/01/18 12:23:57;;;;;;;4.73;1.90;;;0.80;99.90;;;;;;5013176;28;20426;-71
2023/01/18 12:26:51;;;;;;;3.87;1.57;;;0.80;99.90;;;;;;5023790;28;20498;-71
2023/01/18 12:29:25;;;;;;;12.00;1.90;;;0.80;99.90;;;;;;5006296;28;20434;-71
2023/01/18 12:31:54;;;;;;;5.83;3.00;;;0.80;99.90;;;;;;5022073;28;20913;-72
2023/01/18 12:34:36;;;;;;;5.83;2.60;;;0.80;99.90;;;;;;5026668;28;20421;-72
2023/01/18 12:37:08;;;;;;;2.63;1.37;;;0.80;99.90;;;;;;5030885;28;20459;-72
2023/01/18 12:39:36;;;;;;;2.93;1.87;;;0.80;99.90;;;;;;5031123;28;20424;-72
2023/01/18 12:42:13;;;;;;;2.33;1.80;;;0.80;99.90;;;;;;5018124;28;20464;-72
2023/01/18 12:44:56;;;;;;;4.83;1.97;;;0.70;99.90;;;;;;5006448;28;20417;-72
2023/01/18 12:47:26;;;;;;;4.03;2.30;;;0.70;99.90;;;;;;5017889;28;20488;-72
2023/01/18 12:49:56;;;;;;;11.03;1.87;;;0.60;99.90;;;;;;5024194;28;20418;-72
2023/01/18 12:52:23;;;;;;;3.53;1.73;;;0.60;99.90;;;;;;5028124;28;20421;-72
2023/01/18 12:54:54;;;;;;;5.90;2.20;;;0.60;99.90;;;;;;5019636;28;20418;-72
2023/01/18 12:57:22;;;;;;;2.90;1.50;;;0.60;99.90;;;;;;5029370;28;20903;-73
2023/01/18 13:00:01;;;;;;;5.83;1.60;;;0.50;99.90;;;;;;5024022;28;20477;-73
2023/01/18 13:02:32;;;;;;;2.37;1.90;;;0.50;99.90;;;;;;5003771;28;20878;-73
2023/01/18 13:05:34;;;;;;;3.30;1.53;;;0.50;99.90;;;;;;5015930;28;20426;-73
2023/01/18 13:08:09;;;;;;;15.13;2.20;;;0.50;99.90;;;;;;5027130;28;20881;-73
2023/01/18 13:10:35;;;;;;;2.47;1.43;;;0.50;99.90;;;;;;5018981;28;20966;-73
2023/01/18 13:13:04;;;;;;;2.37;1.63;;;0.50;99.90;;;;;;5014567;28;20440;-73
2023/01/18 13:15:42;;;;;;;13.60;1.80;;;0.60;99.90;;;;;;5034106;28;20433;-74
2023/01/18 13:18:23;;;;;;;5.53;1.80;;;0.50;99.90;;;;;;5034568;28;20519;-74
2023/01/18 13:21:12;;;;;;;3.37;1.43;;;0.50;99.90;;;;;;5025791;28;20551;-73
2023/01/18 13:23:45;;;;;;;2.67;1.70;;;0.50;99.90;;;;;;5033568;28;20464;-73
2023/01/18 13:26:18;;;;;;;4.47;1.90;;;0.50;99.90;;;;;;5034275;28;20812;-73
2023/01/18 13:28:45;;;;;;;7.13;1.97;;;0.50;99.90;;;;;;5020939;28;20905;-73
2023/01/18 13:31:11;;;;;;;7.63;1.53;;;0.50;99.90;;;;;;5034220;28;20785;-73
2023/01/18 13:33:39;;;;;;;2.60;1.10;;;0.50;99.90;;;;;;5020610;28;20447;-73
2023/01/18 13:36:13;;;;;;;2.80;1.50;;;0.60;99.90;;;;;;5034363;28;20417;-73
2023/01/18 13:38:55;;;;;;;2.10;1.23;;;0.50;99.90;;;;;;5013595;28;20457;-73
2023/01/18 13:41:26;;;;;;;2.33;1.37;;;0.50;99.90;;;;;;5026542;28;20425;-73
2023/01/18 13:43:52;;;;;;;3.50;1.50;;;0.40;99.90;;;;;;5024877;28;20421;-73